Capitol Logistics 589




PHNL
Daniel K Inouye International Airport
Honolulu, Hawaii
PGUM
Guam International Airport
Guam,

Route Details

Aircraft Information
Group: Trans-Pacific Ops
Types: B744,B763,MD11
Route Data
Demand: V
Distance: 3302nm
Duration: 8h 19m
Recm'd Route: KEOLA3 NONNI BRIUN A450 DEWSS
Origin Wx: PHNL 272053Z 10SM FEW025 SCT055 28/13 A3003 RMK AO2 SLP169 T02780133 50002
Dest. Wx: PGUM 272054Z 07008KT 10SM BKN060 26/24 A2988 RMK AO2 SLP112 60001 T02610244 53010 $
Notes:

Financial History
Total Freight: 380,058lbs
Average Load: 95,015lbs/flt
Fuel Used: 413,965lbs
Avg. Fuel Used: 103,491lbs/flt
Fuel Expense: $272,027
Avg. Fuel Expense: $68,007
Avg. Fuel Cost: $0.67/lbs
Total Gross Income: $876,700
Pilot Pay: $926
Total Expenses: $99,063
Total Revenue: $497,836
Average Revenue: $219,175.05